Time;durP1;ratioP1;P1;durP2;ratioP2;P2;SDS_P1;SDS_P2;PMS_P1;PMS_P2;Temp;Humidity;BMP_temperature;BMP_pressure;BME280_temperature;BME280_humidity;BME280_pressure;Samples;Min_cycle;Max_cycle;Signal;HPM_P1;HPM_P2
2022/12/15 00:41:06;;;;;;;38.20;25.60;;;;;;;5.64;88.85;98856.34;4993691;28;20234;-66
2022/12/15 00:43:34;;;;;;;35.00;24.90;;;;;;;5.65;89.02;98847.44;4993682;28;20190;-66
2022/12/15 00:48:47;;;;;;;34.53;24.67;;;;;;;5.68;89.54;98854.19;4993379;28;20253;-66
2022/12/15 00:51:14;;;;;;;37.40;26.63;;;;;;;5.61;88.87;98859.31;4992963;28;20226;-66
2022/12/15 01:21:11;;;;;;;43.77;31.27;;;;;;;5.42;92.64;98817.72;4993174;28;20276;-66
2022/12/15 01:23:39;;;;;;;47.83;32.03;;;;;;;5.34;92.68;98820.44;4992522;28;20683;-66
2022/12/15 01:26:06;;;;;;;43.90;31.30;;;;;;;5.37;92.88;98793.75;4992453;28;20745;-65
2022/12/15 01:28:34;;;;;;;49.43;30.83;;;;;;;5.38;92.72;98800.66;4993062;28;20203;-65
2022/12/15 01:31:01;;;;;;;49.50;31.70;;;;;;;5.34;91.69;98817.81;4992737;28;20198;-66
2022/12/15 01:33:28;;;;;;;49.73;31.80;;;;;;;5.25;92.24;98833.84;4992458;28;20194;-65
2022/12/15 01:35:59;;;;;;;46.30;32.40;;;;;;;5.23;92.51;98818.22;4995744;28;20641;-66
2022/12/15 01:38:25;;;;;;;47.23;31.13;;;;;;;5.16;92.86;98827.84;4999470;28;20629;-66
2022/12/15 01:40:53;;;;;;;49.90;32.43;;;;;;;5.02;92.72;98833.88;4999317;28;20195;-65
2022/12/15 01:43:22;;;;;;;45.20;30.80;;;;;;;4.86;93.12;98834.00;4999312;28;20602;-67
2022/12/15 01:46:02;;;;;;;48.87;32.50;;;;;;;4.89;93.38;98831.03;4999255;28;20252;-66
2022/12/15 01:48:39;;;;;;;51.43;32.53;;;;;;;4.85;93.72;98829.75;4998897;28;20241;-66
2022/12/15 01:51:25;;;;;;;50.20;33.20;;;;;;;4.59;94.05;98834.53;4998798;28;20209;-67
2022/12/15 01:53:59;;;;;;;52.37;34.47;;;;;;;4.50;95.21;98830.31;4999297;28;20278;-67
2022/12/15 01:56:27;;;;;;;57.23;36.37;;;;;;;4.44;95.54;98820.50;5000022;28;20190;-66
2022/12/15 01:58:59;;;;;;;53.40;35.67;;;;;;;4.36;95.67;98836.31;4998716;28;20250;-66
2022/12/15 02:01:27;;;;;;;57.17;38.00;;;;;;;4.35;96.59;98850.47;4999157;28;20195;-66
2022/12/15 02:03:53;;;;;;;62.03;38.70;;;;;;;4.34;97.39;98846.16;4998703;28;20194;-66
2022/12/15 02:06:21;;;;;;;59.67;37.47;;;;;;;4.38;97.09;98857.97;4999096;28;20194;-66
2022/12/15 02:08:51;;;;;;;62.37;38.73;;;;;;;4.40;97.65;98863.06;4998686;28;20480;-67
2022/12/15 02:11:55;;;;;;;55.93;36.93;;;;;;;4.27;96.80;98840.00;4998598;28;20194;-67
2022/12/15 02:14:32;;;;;;;57.17;36.63;;;;;;;4.31;97.56;98885.97;4998969;28;20757;-67
2022/12/15 02:17:13;;;;;;;58.83;37.17;;;;;;;4.30;97.48;98881.69;4999380;28;20194;-66
2022/12/15 02:20:11;;;;;;;57.63;36.00;;;;;;;4.34;97.71;98869.84;4998506;28;20229;-67
2022/12/15 02:22:56;;;;;;;65.60;38.87;;;;;;;4.08;96.17;98882.44;4990201;28;20194;-67
2022/12/15 02:25:50;;;;;;;76.33;40.30;;;;;;;4.09;96.29;98884.06;4998768;28;20240;-67
2022/12/15 02:28:29;;;;;;;52.90;34.93;;;;;;;3.97;96.05;98901.19;4998567;28;20213;-67
2022/12/15 02:33:53;;;;;;;54.07;34.83;;;;;;;3.86;96.10;98892.84;4998559;28;20892;-67
2022/12/15 02:36:26;;;;;;;55.10;33.97;;;;;;;3.95;96.00;98879.53;4999397;28;20190;-67
2022/12/15 02:38:53;;;;;;;57.90;35.00;;;;;;;3.91;96.08;98870.34;4998697;28;20441;-66
2022/12/15 02:41:35;;;;;;;64.63;38.00;;;;;;;3.74;96.85;98884.53;4998420;28;20511;-67
2022/12/15 02:44:04;;;;;;;57.93;36.20;;;;;;;3.74;97.20;98904.69;4999648;28;20413;-67
2022/12/15 02:46:41;;;;;;;56.77;34.97;;;;;;;3.62;98.59;98916.53;4997464;28;20437;-67
2022/12/15 02:49:16;;;;;;;56.00;36.07;;;;;;;3.57;98.60;98906.56;4995688;28;20495;-67
2022/12/15 02:51:57;;;;;;;59.07;34.57;;;;;;;3.47;98.95;98911.13;4995932;28;20295;-66
2022/12/15 02:54:49;;;;;;;56.33;34.40;;;;;;;3.43;98.61;98896.69;4994866;28;20437;-67
2022/12/15 02:57:24;;;;;;;59.00;34.70;;;;;;;3.46;99.32;98883.25;4996086;28;20488;-67
2022/12/15 02:59:56;;;;;;;52.53;34.63;;;;;;;3.46;98.86;98890.28;4995848;28;20444;-65
2022/12/15 03:02:29;;;;;;;57.90;33.93;;;;;;;3.47;98.79;98887.50;4995444;28;20437;-65
2022/12/15 03:04:57;;;;;;;52.87;33.77;;;;;;;3.49;98.64;98880.31;4995298;28;20434;-65
2022/12/15 03:07:26;;;;;;;56.43;32.10;;;;;;;3.52;98.77;98877.31;4994933;28;20863;-66
2022/12/15 03:09:53;;;;;;;45.60;28.87;;;;;;;3.51;97.96;98882.78;4995300;28;20450;-65
2022/12/15 03:12:20;;;;;;;48.37;31.20;;;;;;;3.55;98.71;98876.19;4994818;28;20542;-65
2022/12/15 03:14:47;;;;;;;47.10;31.23;;;;;;;3.57;97.65;98895.22;4995367;28;20446;-65
2022/12/15 03:17:14;;;;;;;50.87;32.97;;;;;;;3.53;98.03;98886.88;4995631;28;20869;-66
2022/12/15 03:19:42;;;;;;;48.57;31.73;;;;;;;3.56;98.67;98869.97;4995008;28;20481;-65
2022/12/15 03:22:09;;;;;;;52.70;32.43;;;;;;;3.54;99.17;98872.75;4995846;28;20438;-66
2022/12/15 03:24:35;;;;;;;49.03;31.90;;;;;;;3.59;99.11;98890.63;4994832;28;20445;-66
2022/12/15 03:27:04;;;;;;;45.30;30.10;;;;;;;3.62;98.70;98879.78;4994869;28;20484;-66
2022/12/15 03:29:30;;;;;;;46.70;29.70;;;;;;;3.67;98.89;98886.16;4994792;28;20445;-67
2022/12/15 03:31:57;;;;;;;46.50;28.67;;;;;;;3.64;97.94;98869.94;4994405;28;20500;-67
2022/12/15 03:34:24;;;;;;;46.30;29.97;;;;;;;3.71;98.09;98876.97;4994644;28;20508;-67
2022/12/15 03:36:53;;;;;;;46.57;29.33;;;;;;;3.71;98.48;98891.91;4994755;28;20503;-67
2022/12/15 03:39:19;;;;;;;46.20;28.67;;;;;;;3.73;97.69;98871.56;4994324;28;20469;-67
2022/12/15 03:41:46;;;;;;;41.53;27.47;;;;;;;3.79;97.75;98874.31;4994609;28;20449;-66
2022/12/15 03:44:13;;;;;;;44.27;28.00;;;;;;;3.83;97.63;98862.50;4994235;28;20958;-67
2022/12/15 03:46:40;;;;;;;39.50;27.23;;;;;;;3.87;97.82;98869.03;4994795;28;20437;-67
2022/12/15 03:49:06;;;;;;;44.90;25.80;;;;;;;3.86;97.50;98862.16;4994257;28;20194;-67
2022/12/15 03:51:33;;;;;;;39.43;28.73;;;;;;;3.94;97.35;98853.44;4994312;28;20441;-66
2022/12/15 03:54:01;;;;;;;45.30;27.80;;;;;;;4.01;97.58;98854.41;4994497;28;20949;-66
2022/12/15 03:56:28;;;;;;;42.53;27.17;;;;;;;4.00;97.60;98852.75;4994368;28;20865;-66
2022/12/15 03:58:55;;;;;;;41.20;27.63;;;;;;;4.08;96.80;98845.66;4994769;28;20445;-66
2022/12/15 04:01:27;;;;;;;46.27;29.37;;;;;;;4.27;97.34;98850.50;4993899;28;20876;-66
2022/12/15 04:03:54;;;;;;;39.77;26.63;;;;;;;4.42;96.83;98854.00;4993951;28;20477;-66
2022/12/15 04:06:21;;;;;;;38.80;26.97;;;;;;;4.52;96.71;98849.38;4993862;28;20198;-66
2022/12/15 04:08:47;;;;;;;38.83;27.30;;;;;;;4.64;94.77;98848.00;4993891;28;20194;-66
2022/12/15 04:11:16;;;;;;;40.40;27.37;;;;;;;4.69;94.06;98845.66;4994326;28;20198;-67
2022/12/15 04:13:43;;;;;;;38.73;26.83;;;;;;;4.79;93.83;98840.16;4993676;28;20222;-66
2022/12/15 04:16:10;;;;;;;43.53;28.07;;;;;;;4.79;93.27;98840.16;4993477;28;20966;-67
2022/12/15 04:18:37;;;;;;;38.00;27.40;;;;;;;4.83;93.17;98842.25;4993718;28;20450;-66
2022/12/15 04:21:03;;;;;;;43.97;28.87;;;;;;;4.85;92.97;98840.28;4993795;28;20235;-66
2022/12/15 04:23:30;;;;;;;40.37;27.60;;;;;;;4.89;92.76;98841.56;4993210;28;20790;-67
2022/12/15 05:31:57;;;;;;;43.53;27.53;;;;;;;4.86;94.57;98889.25;4992203;28;20225;-67
2022/12/15 05:34:28;;;;;;;41.97;27.63;;;;;;;4.98;94.31;98892.28;4992553;28;20559;-67
2022/12/15 05:36:56;;;;;;;42.17;27.67;;;;;;;5.03;93.72;98909.19;4992492;28;20187;-67
2022/12/15 05:39:23;;;;;;;42.10;27.13;;;;;;;5.04;94.18;98896.88;4992553;28;20198;-67
2022/12/15 05:41:50;;;;;;;40.50;27.50;;;;;;;5.13;93.89;98891.38;4992461;28;20194;-67
2022/12/15 05:44:17;;;;;;;38.77;26.13;;;;;;;5.17;93.29;98924.25;4992824;28;20210;-67
2022/12/15 05:46:45;;;;;;;38.87;26.33;;;;;;;5.14;93.31;98939.56;4992089;28;20198;-67
2022/12/15 05:49:14;;;;;;;40.33;27.40;;;;;;;5.25;92.86;98942.63;4992695;28;20229;-67
2022/12/15 05:51:44;;;;;;;42.83;27.70;;;;;;;5.13;92.34;98895.81;4992099;28;20202;-67
2022/12/15 05:54:14;;;;;;;38.47;25.70;;;;;;;5.28;92.14;98929.09;4992090;28;20243;-67
2022/12/15 05:56:41;;;;;;;43.30;28.00;;;;;;;5.35;92.48;98922.13;4992480;28;20252;-67
2022/12/15 05:59:08;;;;;;;44.50;27.00;;;;;;;5.38;91.42;98934.94;4992415;28;20194;-66
2022/12/15 06:01:35;;;;;;;42.20;29.20;;;;;;;5.42;91.89;98938.88;4991808;28;20221;-66
2022/12/15 06:04:01;;;;;;;45.33;30.77;;;;;;;5.47;91.87;98965.47;4991819;28;20700;-67
2022/12/15 06:06:28;;;;;;;46.67;29.27;;;;;;;5.44;91.33;98973.72;4990329;28;20200;-67
2022/12/15 06:08:57;;;;;;;41.93;28.07;;;;;;;5.37;92.01;98964.09;4991638;28;20623;-67
2022/12/15 06:11:23;;;;;;;45.57;28.93;;;;;;;5.29;91.76;98954.44;4991884;28;20194;-67
2022/12/15 06:13:50;;;;;;;60.77;37.13;;;;;;;5.30;91.88;98956.06;4991945;28;20473;-67
2022/12/15 06:16:19;;;;;;;48.03;31.30;;;;;;;5.19;92.64;98947.78;4992058;28;20257;-67
2022/12/15 06:18:49;;;;;;;50.17;32.83;;;;;;;5.20;93.66;98950.19;4991928;28;20289;-67
2022/12/15 06:21:17;;;;;;;46.27;30.90;;;;;;;5.16;93.79;98951.53;4992227;28;20236;-67
2022/12/15 06:23:45;;;;;;;47.27;29.77;;;;;;;5.32;94.24;98964.59;4994876;28;20285;-67
2022/12/15 06:26:15;;;;;;;39.50;25.93;;;;;;;5.28;93.62;98971.22;4995255;28;20195;-66
2022/12/15 06:28:42;;;;;;;46.90;30.17;;;;;;;5.33;93.54;98971.53;4995701;28;20218;-66
2022/12/15 06:31:11;;;;;;;42.97;30.07;;;;;;;5.17;93.41;98976.91;4995476;28;20214;-66
2022/12/15 06:33:38;;;;;;;38.63;26.40;;;;;;;5.14;93.91;98973.78;4995982;28;20477;-67
2022/12/15 06:36:07;;;;;;;45.77;27.47;;;;;;;5.07;94.41;98981.53;4996268;28;20198;-68
2022/12/15 06:38:34;;;;;;;44.47;25.70;;;;;;;5.12;95.00;98978.41;4995390;28;20256;-67
2022/12/15 06:41:03;;;;;;;37.50;25.10;;;;;;;5.19;95.00;98982.00;4995392;28;20194;-67
2022/12/15 06:43:32;;;;;;;46.90;27.23;;;;;;;5.20;94.90;98981.78;4995541;28;20214;-67
2022/12/15 06:45:59;;;;;;;44.10;27.83;;;;;;;5.20;95.15;98973.88;4995322;28;20199;-68
2022/12/15 06:48:25;;;;;;;47.63;29.23;;;;;;;5.23;94.96;98983.28;4995127;28;20671;-66
2022/12/15 06:50:53;;;;;;;71.17;37.77;;;;;;;5.37;94.89;98985.97;4995263;28;20634;-69
2022/12/15 06:53:22;;;;;;;67.77;38.60;;;;;;;5.45;95.21;98993.81;4995085;28;20268;-67
2022/12/15 06:55:49;;;;;;;61.13;34.27;;;;;;;5.50;94.68;98983.56;4995147;28;20265;-67
2022/12/15 06:58:17;;;;;;;45.53;28.47;;;;;;;5.56;93.75;98990.75;4995032;28;20254;-68
2022/12/15 07:00:46;;;;;;;50.07;28.53;;;;;;;5.50;93.63;98994.09;4995140;28;20226;-68
2022/12/15 07:03:15;;;;;;;51.77;29.37;;;;;;;5.55;93.53;98999.66;4994626;28;20261;-65
2022/12/15 07:05:42;;;;;;;47.10;26.47;;;;;;;5.55;93.61;98985.66;4995245;28;20206;-66
2022/12/15 07:08:10;;;;;;;45.00;27.50;;;;;;;5.61;93.64;98988.41;4994838;28;20190;-68
2022/12/15 07:10:39;;;;;;;45.53;26.37;;;;;;;5.66;93.54;98979.97;4994769;28;20230;-67
2022/12/15 07:13:07;;;;;;;44.73;26.13;;;;;;;5.68;93.92;98968.25;4993739;28;20230;-68
2022/12/15 07:15:33;;;;;;;42.93;26.37;;;;;;;5.82;93.71;98955.31;4995022;28;20199;-66
2022/12/15 07:18:01;;;;;;;48.10;28.27;;;;;;;5.88;92.97;98941.44;4991057;28;20261;-68
2022/12/15 07:20:29;;;;;;;46.10;27.27;;;;;;;5.99;93.74;98983.16;4990322;28;20234;-69
2022/12/15 07:22:56;;;;;;;45.07;26.67;;;;;;;6.27;93.10;98997.38;4992052;28;20202;-68
2022/12/15 07:25:24;;;;;;;46.83;27.07;;;;;;;6.49;93.57;99001.78;4993970;28;20203;-68
2022/12/15 07:27:50;;;;;;;40.47;25.17;;;;;;;6.77;91.20;99005.41;4989688;28;20214;-71
2022/12/15 07:30:17;;;;;;;39.87;23.50;;;;;;;7.22;89.13;99021.00;4984368;28;20226;-70
2022/12/15 07:32:44;;;;;;;39.63;26.60;;;;;;;7.47;87.17;99019.63;4994307;28;20222;-68
2022/12/15 07:35:13;;;;;;;41.30;26.00;;;;;;;7.59;86.53;99012.84;4994007;28;20195;-69
2022/12/15 07:37:40;;;;;;;36.20;23.60;;;;;;;7.93;85.58;99020.88;4991831;28;20645;-72
2022/12/15 07:40:08;;;;;;;34.57;21.80;;;;;;;8.10;83.22;99027.53;4994090;28;20668;-68
2022/12/15 07:42:35;;;;;;;35.30;22.57;;;;;;;8.10;83.67;99032.81;4993944;28;20749;-68
2022/12/15 07:45:02;;;;;;;39.83;22.97;;;;;;;8.34;85.24;99058.88;4994280;28;20201;-67
2022/12/15 07:47:29;;;;;;;40.57;25.90;;;;;;;8.56;83.37;99055.16;4994104;28;20644;-68
2022/12/15 07:49:55;;;;;;;33.50;22.00;;;;;;;8.53;82.55;99055.56;4993845;28;20703;-68
2022/12/15 07:52:24;;;;;;;38.80;22.57;;;;;;;8.53;82.55;99042.34;4994156;28;20198;-68
2022/12/15 07:54:50;;;;;;;37.80;21.27;;;;;;;8.73;82.00;99035.31;4993987;28;20672;-64
2022/12/15 07:57:17;;;;;;;34.37;19.03;;;;;;;8.87;82.15;99034.38;4999997;28;20211;-68
2022/12/15 07:59:45;;;;;;;28.70;18.63;;;;;;;9.02;81.52;99021.78;5009076;28;20268;-69
2022/12/15 08:02:12;;;;;;;29.70;19.00;;;;;;;9.30;81.12;99049.00;4993387;28;20194;-67
2022/12/15 08:04:39;;;;;;;33.03;19.77;;;;;;;9.41;79.64;99040.50;4998017;28;20216;-67
2022/12/15 08:07:07;;;;;;;32.00;19.63;;;;;;;9.60;79.54;99023.84;4995361;28;20191;-67
2022/12/15 08:09:36;;;;;;;27.97;18.70;;;;;;;9.85;79.72;99046.13;4993259;28;20269;-68
2022/12/15 08:12:03;;;;;;;28.50;18.80;;;;;;;10.21;77.93;99050.03;4993704;28;20202;-68
2022/12/15 08:14:31;;;;;;;26.37;17.13;;;;;;;10.36;77.68;99053.31;4992169;28;20601;-67
2022/12/15 08:16:57;;;;;;;31.03;17.93;;;;;;;10.53;77.41;99045.72;4993294;28;20199;-68
2022/12/15 08:19:24;;;;;;;27.70;18.43;;;;;;;10.93;75.68;99060.56;4993431;28;20675;-66
2022/12/15 08:21:51;;;;;;;24.43;15.63;;;;;;;11.21;74.63;99053.09;4983923;28;20195;-69
2022/12/15 08:24:18;;;;;;;25.40;16.87;;;;;;;11.19;74.71;99046.38;4983724;28;20199;-67
2022/12/15 08:26:46;;;;;;;26.73;17.57;;;;;;;11.47;75.99;99044.19;4992297;28;20285;-65
2022/12/15 08:29:14;;;;;;;22.63;15.50;;;;;;;11.76;72.32;99057.75;4993693;28;20195;-66
2022/12/15 08:31:40;;;;;;;22.97;15.07;;;;;;;11.89;72.60;99070.19;4993946;28;20199;-68
2022/12/15 08:34:09;;;;;;;21.30;15.47;;;;;;;12.04;70.77;99070.69;4991204;28;20238;-65
2022/12/15 08:36:36;;;;;;;18.77;13.67;;;;;;;12.21;71.06;99056.63;5008498;28;20195;-66
2022/12/15 08:39:03;;;;;;;23.27;14.67;;;;;;;12.52;71.02;99066.41;4998703;28;20191;-67
2022/12/15 08:41:31;;;;;;;13.93;12.40;;;;;;;12.70;68.56;99071.78;4993532;28;20199;-66
2022/12/15 08:44:01;;;;;;;19.87;14.17;;;;;;;12.91;68.15;99074.03;4988158;28;20693;-66
2022/12/15 08:46:30;;;;;;;23.27;15.87;;;;;;;12.84;67.52;99074.09;4971373;28;20249;-67
2022/12/15 08:48:57;;;;;;;22.23;16.07;;;;;;;12.90;68.31;99086.53;4972181;28;20252;-67
2022/12/15 08:51:26;;;;;;;19.73;13.70;;;;;;;13.02;67.49;99076.81;4992303;28;20204;-65
2022/12/15 08:53:57;;;;;;;22.23;15.63;;;;;;;13.25;66.11;99079.63;4991504;28;20231;-67
2022/12/15 08:56:28;;;;;;;16.67;13.43;;;;;;;13.46;65.64;99089.00;4992804;28;20579;-68
2022/12/15 08:58:56;;;;;;;15.43;12.73;;;;;;;13.53;66.47;99087.91;4992479;28;20249;-66
2022/12/15 09:01:26;;;;;;;19.97;14.17;;;;;;;13.31;66.36;99080.59;4990766;28;20578;-66
2022/12/15 09:03:54;;;;;;;19.23;15.33;;;;;;;13.41;64.87;99071.03;4991176;28;20236;-69
2022/12/15 09:06:24;;;;;;;15.87;12.20;;;;;;;13.29;64.98;99066.66;4990883;28;20261;-68
2022/12/15 09:08:55;;;;;;;13.57;12.00;;;;;;;13.36;65.57;99057.50;4992654;28;20201;-68
2022/12/15 09:11:22;;;;;;;15.33;12.07;;;;;;;13.47;65.55;99063.94;4981370;28;20210;-68
2022/12/15 09:13:48;;;;;;;14.10;11.00;;;;;;;13.42;65.16;99064.63;4992449;28;20232;-66
2022/12/15 09:16:16;;;;;;;12.03;10.83;;;;;;;13.53;64.74;99074.56;4990417;28;20674;-68
2022/12/15 09:18:47;;;;;;;12.03;10.70;;;;;;;13.58;65.04;99088.03;4991098;28;20263;-68
2022/12/15 09:21:15;;;;;;;13.17;10.60;;;;;;;13.64;63.22;99087.13;4992116;28;20294;-68
2022/12/15 09:23:42;;;;;;;14.70;11.53;;;;;;;13.62;65.36;99078.53;4991810;28;20199;-66
2022/12/15 09:26:11;;;;;;;13.67;12.13;;;;;;;13.40;65.74;99066.69;4985227;28;20196;-66
2022/12/15 09:28:38;;;;;;;11.97;10.77;;;;;;;13.34;65.38;99059.59;4991022;28;20689;-67
2022/12/15 09:31:07;;;;;;;11.63;10.47;;;;;;;13.35;65.89;99071.91;4998274;28;20249;-67
2022/12/15 09:33:34;;;;;;;13.67;11.13;;;;;;;13.36;66.64;99057.50;4991134;28;20235;-71
2022/12/15 09:36:03;;;;;;;14.07;10.97;;;;;;;13.49;65.88;99056.56;4991631;28;20334;-67
2022/12/15 09:38:30;;;;;;;14.17;11.73;;;;;;;13.63;66.13;99058.81;4990330;28;20700;-67
2022/12/15 09:40:57;;;;;;;13.30;11.90;;;;;;;13.61;66.76;99070.75;4991238;28;20237;-66
2022/12/15 09:43:27;;;;;;;15.90;11.77;;;;;;;13.80;64.98;99067.03;4991360;28;20202;-68
2022/12/15 09:46:02;;;;;;;15.50;13.07;;;;;;;13.81;65.50;99072.09;4992508;28;20197;-66
2022/12/15 09:48:36;;;;;;;11.23;10.13;;;;;;;13.99;63.71;99080.09;4991279;28;20198;-68
2022/12/15 09:51:07;;;;;;;15.73;12.23;;;;;;;14.10;64.02;99081.94;4992216;28;20236;-65
2022/12/15 09:53:34;;;;;;;16.13;11.60;;;;;;;14.11;63.34;99088.94;4990755;28;20226;-68
2022/12/15 09:56:20;;;;;;;14.40;10.17;;;;;;;13.90;64.41;99081.44;4992961;28;20190;-65
2022/12/15 09:58:54;;;;;;;23.50;11.20;;;;;;;13.97;67.60;99062.66;4994817;28;20248;-67
2022/12/15 10:01:31;;;;;;;13.10;11.17;;;;;;;14.03;64.23;99075.09;4995160;28;20195;-67
2022/12/15 10:04:07;;;;;;;11.60;10.43;;;;;;;13.97;63.93;99081.34;4995221;28;20226;-65
2022/12/15 10:06:41;;;;;;;12.60;10.97;;;;;;;13.84;65.10;99082.34;4996144;28;20197;-67
2022/12/15 10:09:17;;;;;;;11.53;10.33;;;;;;;13.75;64.85;99077.53;4997947;28;20203;-67
2022/12/15 10:11:50;;;;;;;10.77;9.47;;;;;;;13.65;64.41;99071.94;4991080;28;20204;-65
2022/12/15 10:14:27;;;;;;;12.07;10.77;;;;;;;13.57;65.76;99086.41;4996563;28;20291;-65
2022/12/15 10:17:03;;;;;;;12.17;10.57;;;;;;;13.46;66.20;99067.66;4995913;28;20210;-66
2022/12/15 10:19:38;;;;;;;12.33;11.00;;;;;;;13.55;66.45;99069.81;4995482;28;20277;-67
2022/12/15 10:22:12;;;;;;;11.83;10.20;;;;;;;13.64;65.97;99068.44;4995320;28;20237;-66
2022/12/15 10:24:39;;;;;;;13.83;12.33;;;;;;;13.67;67.02;99060.00;4993976;28;20735;-67
2022/12/15 10:27:20;;;;;;;15.83;11.70;;;;;;;13.57;66.54;99064.25;4991560;28;20210;-67
2022/12/15 10:29:56;;;;;;;13.90;11.97;;;;;;;13.57;66.72;99054.41;4994487;28;20226;-67
2022/12/15 10:32:31;;;;;;;16.70;12.27;;;;;;;13.60;66.55;99053.94;4987835;28;20236;-68
2022/12/15 10:34:57;;;;;;;13.93;11.83;;;;;;;13.63;66.79;99053.47;4993954;28;20256;-68
2022/12/15 10:37:25;;;;;;;17.20;13.03;;;;;;;13.43;68.01;99039.59;4994042;28;20267;-67
2022/12/15 10:39:52;;;;;;;13.50;12.10;;;;;;;13.33;68.92;99038.50;4995049;28;20190;-67
2022/12/15 10:42:22;;;;;;;20.30;13.10;;;;;;;13.24;68.48;99040.63;4993929;28;20198;-69
2022/12/15 10:44:51;;;;;;;16.80;13.13;;;;;;;13.30;67.77;99038.94;4995125;28;20218;-68
2022/12/15 10:47:21;;;;;;;18.37;14.17;;;;;;;13.43;67.53;99036.91;4994222;28;20259;-65
2022/12/15 10:49:48;;;;;;;22.13;14.73;;;;;;;13.57;67.43;99041.06;4992663;28;20615;-67
2022/12/15 10:52:22;;;;;;;17.60;13.53;;;;;;;13.79;67.70;99034.16;4994113;28;20221;-67
2022/12/15 10:54:53;;;;;;;17.10;13.00;;;;;;;13.85;66.85;99061.81;4994653;28;20241;-69
2022/12/15 10:57:22;;;;;;;17.03;12.90;;;;;;;13.78;67.64;99051.22;4993504;28;20613;-67
2022/12/15 10:59:51;;;;;;;17.47;13.00;;;;;;;13.88;67.74;99056.81;4992739;28;20670;-67
2022/12/15 11:02:32;;;;;;;16.60;12.13;;;;;;;14.12;67.02;99058.50;4994965;28;20206;-68
2022/12/15 11:05:01;;;;;;;19.33;12.93;;;;;;;14.28;65.94;99062.41;4993780;28;20674;-68
2022/12/15 11:07:34;;;;;;;16.17;13.73;;;;;;;14.44;66.54;99065.22;4994947;28;20225;-66
2022/12/15 11:10:14;;;;;;;13.90;11.50;;;;;;;14.61;65.35;99066.16;5001570;28;20615;-67
2022/12/15 11:12:52;;;;;;;13.73;11.43;;;;;;;14.61;64.01;99074.19;4990803;28;20187;-68
2022/12/15 11:15:39;;;;;;;16.63;12.00;;;;;;;14.67;64.94;99061.75;4992783;28;20203;-68
2022/12/15 11:18:15;;;;;;;15.23;12.40;;;;;;;14.66;64.93;99076.97;4993953;28;20210;-67
2022/12/15 11:20:50;;;;;;;16.90;12.27;;;;;;;14.70;63.83;99086.16;4994683;28;20214;-67
2022/12/15 11:23:22;;;;;;;18.17;12.33;;;;;;;14.73;64.21;99083.00;4993741;28;20256;-67
2022/12/15 11:25:55;;;;;;;15.83;12.77;;;;;;;14.82;62.93;99086.97;4991240;28;20721;-66
2022/12/15 11:28:29;;;;;;;16.17;12.77;;;;;;;14.86;63.14;99090.81;4996693;28;20194;-67
2022/12/15 11:31:02;;;;;;;16.77;12.67;;;;;;;14.79;62.74;99084.75;4992726;28;20198;-69
2022/12/15 11:33:29;;;;;;;14.67;11.40;;;;;;;14.79;63.17;99082.06;4993193;28;20663;-69
2022/12/15 11:36:08;;;;;;;14.43;12.47;;;;;;;14.90;63.75;99073.25;4992589;28;20201;-68
2022/12/15 11:38:43;;;;;;;18.67;14.00;;;;;;;14.89;63.19;99076.97;4993649;28;20685;-69
2022/12/15 11:41:22;;;;;;;17.13;13.43;;;;;;;14.91;63.75;99079.41;5023748;28;20222;-71
2022/12/15 11:44:01;;;;;;;15.03;11.17;;;;;;;14.89;63.50;99076.97;4993667;28;20632;-68
2022/12/15 11:46:36;;;;;;;16.47;10.43;;;;;;;14.90;63.40;99078.59;4992757;28;20194;-68
2022/12/15 11:49:28;;;;;;;13.83;11.43;;;;;;;14.92;62.91;99081.84;4994056;28;20273;-69
2022/12/15 11:52:01;;;;;;;12.77;11.00;;;;;;;15.03;62.85;99098.94;4992588;28;20186;-70
2022/12/15 11:54:37;;;;;;;16.17;12.03;;;;;;;15.06;63.15;99085.06;4993603;28;20756;-67
2022/12/15 11:57:24;;;;;;;19.57;12.13;;;;;;;15.02;62.76;99089.28;4992653;28;20733;-68
2022/12/15 12:00:08;;;;;;;16.13;11.07;;;;;;;15.04;63.17;99090.66;4985215;28;20250;-67
2022/12/15 12:02:49;;;;;;;16.40;11.80;;;;;;;14.98;63.19;99091.59;4974894;28;20195;-69
2022/12/15 12:05:29;;;;;;;12.67;10.77;;;;;;;14.96;63.05;99076.84;4978875;28;20229;-67
2022/12/15 12:08:06;;;;;;;15.63;11.47;;;;;;;15.04;63.17;99085.31;4993539;28;20202;-69
2022/12/15 12:10:41;;;;;;;19.70;13.37;;;;;;;15.09;62.60;99090.78;5000652;28;20252;-68
2022/12/15 12:13:19;;;;;;;17.83;12.53;;;;;;;15.12;62.86;99084.16;4993920;28;20186;-69
2022/12/15 12:15:54;;;;;;;12.33;11.03;;;;;;;15.12;63.04;99084.94;4993115;28;20654;-69
2022/12/15 12:18:26;;;;;;;14.20;11.30;;;;;;;14.90;63.66;99094.63;4994753;28;20592;-68
2022/12/15 12:20:58;;;;;;;18.23;10.90;;;;;;;14.90;64.50;99083.94;4993645;28;20230;-68
2022/12/15 12:23:34;;;;;;;14.50;10.67;;;;;;;14.92;63.43;99081.03;4992958;28;20206;-68
2022/12/15 12:26:07;;;;;;;11.60;10.40;;;;;;;14.91;63.45;99090.09;4986939;28;20191;-69
2022/12/15 12:28:46;;;;;;;15.10;10.77;;;;;;;14.79;64.98;99090.09;4993116;28;20198;-67
2022/12/15 12:31:25;;;;;;;14.67;10.33;;;;;;;14.78;64.04;99090.31;4995797;28;20226;-68
2022/12/15 12:33:58;;;;;;;12.77;10.43;;;;;;;14.75;64.31;99091.59;4993162;28;20574;-70
2022/12/15 12:36:25;;;;;;;16.47;11.30;;;;;;;14.76;64.78;99097.78;4992261;28;20675;-69
2022/12/15 12:38:55;;;;;;;12.87;9.97;;;;;;;14.75;64.21;99101.50;4993421;28;20194;-69
2022/12/15 12:41:32;;;;;;;16.20;10.73;;;;;;;14.74;63.78;99100.69;4991929;28;20221;-69
2022/12/15 12:44:07;;;;;;;12.20;11.00;;;;;;;14.81;63.42;99101.38;4993123;28;20245;-67
2022/12/15 12:46:41;;;;;;;19.93;11.37;;;;;;;14.81;64.14;99106.72;4992127;28;20234;-67
2022/12/15 12:49:16;;;;;;;15.87;12.13;;;;;;;14.80;64.87;99102.44;4992413;28;20636;-67
2022/12/15 12:51:50;;;;;;;15.67;10.73;;;;;;;14.87;64.98;99113.03;4987263;28;20186;-66
2022/12/15 12:54:42;;;;;;;15.47;10.80;;;;;;;14.90;64.48;99109.84;4992734;28;20341;-67
2022/12/15 12:57:37;;;;;;;15.90;11.20;;;;;;;14.87;64.17;99121.84;4984617;28;20664;-66
2022/12/15 13:00:18;;;;;;;17.40;13.10;;;;;;;14.83;64.42;99119.88;4968879;28;20214;-66
2022/12/15 13:03:17;;;;;;;13.33;11.40;;;;;;;14.80;64.04;99117.66;4973532;28;20223;-66
2022/12/15 13:05:50;;;;;;;13.00;11.33;;;;;;;14.82;64.50;99135.09;4972389;28;20195;-65
2022/12/15 13:08:47;;;;;;;20.03;12.20;;;;;;;14.84;64.25;99130.34;4973548;28;20632;-66
2022/12/15 13:12:00;;;;;;;23.30;12.70;;;;;;;14.85;64.29;99137.31;5009988;28;20677;-66
2022/12/15 13:14:36;;;;;;;6.53;5.97;;;;;;;15.05;77.57;99097.66;5010808;28;20218;-68
2022/12/15 13:17:11;;;;;;;8.90;7.43;;;;;;;15.46;79.45;99108.22;4992958;28;20268;-69
2022/12/15 13:20:19;;;;;;;20.20;13.13;;;;;;;15.88;71.28;99131.00;4992171;28;20701;-69
2022/12/15 13:22:46;;;;;;;16.00;11.20;;;;;;;16.16;71.25;99143.59;4992579;28;20600;-68
2022/12/15 13:25:41;;;;;;;18.47;13.27;;;;;;;16.19;63.96;99163.72;4992773;28;20587;-67
2022/12/15 13:28:52;;;;;;;21.23;12.77;;;;;;;16.16;61.05;99174.94;4974630;28;20713;-66
2022/12/15 13:31:47;;;;;;;18.87;13.20;;;;;;;15.97;60.62;99178.84;4982193;28;20198;-66
2022/12/15 13:34:24;;;;;;;21.20;12.90;;;;;;;15.83;60.85;99179.13;4992764;28;20190;-65
2022/12/15 13:37:04;;;;;;;22.67;13.03;;;;;;;15.65;60.99;99168.56;4993510;28;20191;-66
2022/12/15 13:39:50;;;;;;;30.80;15.87;;;;;;;15.49;61.37;99176.53;4992658;28;20712;-65
2022/12/15 13:42:42;;;;;;;29.63;15.47;;;;;;;15.30;61.87;99167.78;4992793;28;20249;-65
2022/12/15 13:45:39;;;;;;;30.03;16.77;;;;;;;15.17;62.44;99170.69;4992707;28;20194;-65
2022/12/15 13:48:14;;;;;;;29.20;16.87;;;;;;;14.96;63.52;99173.94;4992695;28;20206;-67
2022/12/15 13:50:48;;;;;;;28.37;16.80;;;;;;;14.85;63.60;99169.41;4993847;28;20253;-65
2022/12/15 13:53:20;;;;;;;31.17;18.33;;;;;;;14.76;64.13;99168.13;4991972;28;20244;-66
2022/12/15 13:55:59;;;;;;;28.53;16.53;;;;;;;14.67;64.47;99174.03;4992289;28;20686;-65
2022/12/15 13:58:28;;;;;;;28.87;16.00;;;;;;;14.57;65.45;99174.59;4992054;28;20621;-66
2022/12/15 14:00:57;;;;;;;27.30;16.03;;;;;;;14.51;65.52;99174.69;4992790;28;20194;-65
2022/12/15 14:03:24;;;;;;;21.97;16.07;;;;;;;14.35;66.24;99176.16;4992148;28;20637;-65